sensor_id;sensor_type;location;lat;lon;timestamp;pressure;altitude;pressure_sealevel;temperature;humidity
52777;BME280;38656;54.260;20.822;2023-04-26T00:01:02;100176.38;;;13.53;100.00
52777;BME280;38656;54.260;20.822;2023-04-26T00:03:31;100172.22;;;13.51;100.00
52777;BME280;38656;54.260;20.822;2023-04-26T00:05:59;100176.34;;;14.17;99.98
52777;BME280;38656;54.260;20.822;2023-04-26T00:08:30;100177.63;;;13.77;100.00
52777;BME280;38656;54.260;20.822;2023-04-26T00:10:56;100186.16;;;13.98;100.00
52777;BME280;38656;54.260;20.822;2023-04-26T00:13:23;100171.03;;;15.30;99.74
52777;BME280;38656;54.260;20.822;2023-04-26T00:15:49;100169.75;;;15.00;93.78
52777;BME280;38656;54.260;20.822;2023-04-26T00:18:15;100169.63;;;14.57;98.32
52777;BME280;38656;54.260;20.822;2023-04-26T00:20:42;100179.88;;;14.44;100.00
52777;BME280;38656;54.260;20.822;2023-04-26T00:23:08;100178.22;;;14.51;100.00
52777;BME280;38656;54.260;20.822;2023-04-26T00:25:36;100175.44;;;14.08;100.00
52777;BME280;38656;54.260;20.822;2023-04-26T00:28:03;100178.38;;;14.49;100.00
52777;BME280;38656;54.260;20.822;2023-04-26T00:30:29;100180.53;;;15.41;95.91
52777;BME280;38656;54.260;20.822;2023-04-26T00:32:55;100182.84;;;15.79;90.08
52777;BME280;38656;54.260;20.822;2023-04-26T00:35:22;100174.56;;;15.39;96.40
52777;BME280;38656;54.260;20.822;2023-04-26T00:37:48;100184.38;;;14.69;97.43
52777;BME280;38656;54.260;20.822;2023-04-26T00:40:14;100178.28;;;15.12;95.41
52777;BME280;38656;54.260;20.822;2023-04-26T00:42:41;100180.97;;;15.20;94.21
52777;BME280;38656;54.260;20.822;2023-04-26T00:45:08;100179.38;;;14.04;100.00
52777;BME280;38656;54.260;20.822;2023-04-26T00:47:35;100173.31;;;14.82;97.97
52777;BME280;38656;54.260;20.822;2023-04-26T00:50:01;100180.81;;;14.87;96.65
52777;BME280;38656;54.260;20.822;2023-04-26T00:52:28;100182.84;;;16.36;93.45
52777;BME280;38656;54.260;20.822;2023-04-26T00:54:55;100184.53;;;16.21;89.14
52777;BME280;38656;54.260;20.822;2023-04-26T00:57:22;100180.66;;;17.29;86.07
52777;BME280;38656;54.260;20.822;2023-04-26T00:59:49;100183.22;;;14.98;92.42
52777;BME280;38656;54.260;20.822;2023-04-26T01:02:15;100190.19;;;16.34;85.42
52777;BME280;38656;54.260;20.822;2023-04-26T01:04:42;100186.19;;;16.22;87.78
52777;BME280;38656;54.260;20.822;2023-04-26T01:07:10;100187.88;;;15.39;91.87
52777;BME280;38656;54.260;20.822;2023-04-26T01:09:37;100187.53;;;15.42;86.54
52777;BME280;38656;54.260;20.822;2023-04-26T01:12:03;100189.25;;;15.09;89.88
52777;BME280;38656;54.260;20.822;2023-04-26T01:14:30;100182.84;;;16.36;87.58
52777;BME280;38656;54.260;20.822;2023-04-26T01:16:57;100189.19;;;16.10;86.19
52777;BME280;38656;54.260;20.822;2023-04-26T01:19:23;100191.66;;;15.28;93.00
52777;BME280;38656;54.260;20.822;2023-04-26T01:21:50;100179.50;;;15.85;87.53
52777;BME280;38656;54.260;20.822;2023-04-26T01:24:16;100179.53;;;16.09;89.88
52777;BME280;38656;54.260;20.822;2023-04-26T01:26:43;100180.19;;;14.93;90.58
52777;BME280;38656;54.260;20.822;2023-04-26T01:29:18;100177.44;;;15.54;94.34
52777;BME280;38656;54.260;20.822;2023-04-26T01:31:45;100179.81;;;14.80;95.22
52777;BME280;38656;54.260;20.822;2023-04-26T01:34:12;100174.19;;;15.26;91.14
52777;BME280;38656;54.260;20.822;2023-04-26T01:36:38;100174.28;;;16.74;87.80
52777;BME280;38656;54.260;20.822;2023-04-26T01:39:06;100174.50;;;17.20;81.86
52777;BME280;38656;54.260;20.822;2023-04-26T01:41:34;100167.44;;;15.48;90.82
52777;BME280;38656;54.260;20.822;2023-04-26T01:44:00;100176.84;;;15.34;92.36
52777;BME280;38656;54.260;20.822;2023-04-26T01:46:26;100177.13;;;14.80;92.91
52777;BME280;38656;54.260;20.822;2023-04-26T01:48:54;100168.88;;;14.91;94.31
52777;BME280;38656;54.260;20.822;2023-04-26T01:51:20;100172.19;;;16.36;88.24
52777;BME280;38656;54.260;20.822;2023-04-26T01:53:46;100182.50;;;14.88;94.52
52777;BME280;38656;54.260;20.822;2023-04-26T01:56:13;100177.19;;;14.88;95.63
52777;BME280;38656;54.260;20.822;2023-04-26T01:58:39;100182.91;;;15.01;93.68
52777;BME280;38656;54.260;20.822;2023-04-26T02:01:07;100178.69;;;15.84;90.74
52777;BME280;38656;54.260;20.822;2023-04-26T02:03:34;100180.19;;;14.93;92.99
52777;BME280;38656;54.260;20.822;2023-04-26T02:06:00;100168.97;;;15.16;94.23
52777;BME280;38656;54.260;20.822;2023-04-26T02:08:27;100175.22;;;14.98;91.77
52777;BME280;38656;54.260;20.822;2023-04-26T02:10:53;100161.75;;;15.34;92.87
52777;BME280;38656;54.260;20.822;2023-04-26T02:13:19;100164.63;;;15.07;95.16
52777;BME280;38656;54.260;20.822;2023-04-26T02:15:46;100165.59;;;14.97;93.17
52777;BME280;38656;54.260;20.822;2023-04-26T02:18:12;100161.31;;;15.04;88.76
52777;BME280;38656;54.260;20.822;2023-04-26T02:20:42;100156.72;;;15.82;91.12
52777;BME280;38656;54.260;20.822;2023-04-26T02:23:09;100157.47;;;15.58;87.95
52777;BME280;38656;54.260;20.822;2023-04-26T02:25:36;100157.59;;;14.89;91.93
52777;BME280;38656;54.260;20.822;2023-04-26T02:28:05;100157.59;;;14.89;92.08
52777;BME280;38656;54.260;20.822;2023-04-26T02:30:31;100149.94;;;14.86;93.44
52777;BME280;38656;54.260;20.822;2023-04-26T02:32:58;100145.41;;;15.21;86.88
52777;BME280;38656;54.260;20.822;2023-04-26T02:35:24;100146.25;;;15.81;89.13
52777;BME280;38656;54.260;20.822;2023-04-26T02:37:51;100143.13;;;15.43;87.75
52777;BME280;38656;54.260;20.822;2023-04-26T02:40:18;100139.44;;;15.27;87.15
52777;BME280;38656;54.260;20.822;2023-04-26T02:42:44;100137.72;;;15.69;86.60
52777;BME280;38656;54.260;20.822;2023-04-26T02:45:11;100142.56;;;14.27;90.93
52777;BME280;38656;54.260;20.822;2023-04-26T02:47:37;100137.13;;;15.32;89.60
52777;BME280;38656;54.260;20.822;2023-04-26T02:50:07;100133.66;;;14.97;88.72
52777;BME280;38656;54.260;20.822;2023-04-26T02:52:37;100137.28;;;14.88;93.85
52777;BME280;38656;54.260;20.822;2023-04-26T02:55:04;100138.91;;;14.81;88.52
52777;BME280;38656;54.260;20.822;2023-04-26T02:57:30;100128.56;;;15.04;87.96
52777;BME280;38656;54.260;20.822;2023-04-26T02:59:57;100133.31;;;15.35;86.28
52777;BME280;38656;54.260;20.822;2023-04-26T03:02:23;100145.09;;;15.32;85.09
52777;BME280;38656;54.260;20.822;2023-04-26T03:04:50;100141.28;;;15.35;86.54
52777;BME280;38656;54.260;20.822;2023-04-26T03:07:16;100140.41;;;15.18;84.14
52777;BME280;38656;54.260;20.822;2023-04-26T03:09:43;100139.94;;;15.31;83.74
52777;BME280;38656;54.260;20.822;2023-04-26T03:12:09;100137.50;;;15.54;82.36
52777;BME280;38656;54.260;20.822;2023-04-26T03:14:35;100144.38;;;14.79;79.82
52777;BME280;38656;54.260;20.822;2023-04-26T03:17:02;100134.13;;;14.32;84.36
52777;BME280;38656;54.260;20.822;2023-04-26T03:19:28;100134.94;;;15.87;81.22
52777;BME280;38656;54.260;20.822;2023-04-26T03:21:55;100146.03;;;13.84;82.26
52777;BME280;38656;54.260;20.822;2023-04-26T03:24:21;100146.53;;;14.76;82.44
52777;BME280;38656;54.260;20.822;2023-04-26T03:26:48;100143.88;;;13.87;83.52
52777;BME280;38656;54.260;20.822;2023-04-26T03:29:15;100146.13;;;14.62;81.82
52777;BME280;38656;54.260;20.822;2023-04-26T03:31:42;100153.97;;;14.20;80.55
52777;BME280;38656;54.260;20.822;2023-04-26T03:34:08;100155.72;;;15.24;80.70
52777;BME280;38656;54.260;20.822;2023-04-26T03:36:34;100164.31;;;14.57;78.05
52777;BME280;38656;54.260;20.822;2023-04-26T03:39:00;100159.22;;;14.90;77.33
52777;BME280;38656;54.260;20.822;2023-04-26T03:41:27;100159.22;;;14.38;80.19
52777;BME280;38656;54.260;20.822;2023-04-26T03:43:53;100159.44;;;13.82;80.90
52777;BME280;38656;54.260;20.822;2023-04-26T03:46:19;100161.59;;;14.41;78.17
52777;BME280;38656;54.260;20.822;2023-04-26T03:48:45;100158.94;;;14.67;78.00
52777;BME280;38656;54.260;20.822;2023-04-26T03:51:11;100157.44;;;14.99;76.54
52777;BME280;38656;54.260;20.822;2023-04-26T03:53:37;100170.06;;;14.44;77.92
52777;BME280;38656;54.260;20.822;2023-04-26T03:56:04;100166.69;;;15.21;75.77
52777;BME280;38656;54.260;20.822;2023-04-26T03:58:30;100168.72;;;14.93;73.63
52777;BME280;38656;54.260;20.822;2023-04-26T04:00:56;100162.56;;;14.92;76.33
52777;BME280;38656;54.260;20.822;2023-04-26T04:03:23;100166.91;;;14.41;77.77
52777;BME280;38656;54.260;20.822;2023-04-26T04:05:50;100163.75;;;13.83;82.07
52777;BME280;38656;54.260;20.822;2023-04-26T04:08:16;100169.44;;;13.52;82.17
52777;BME280;38656;54.260;20.822;2023-04-26T04:10:44;100167.56;;;13.98;80.66
52777;BME280;38656;54.260;20.822;2023-04-26T04:13:10;100170.22;;;13.62;81.97
52777;BME280;38656;54.260;20.822;2023-04-26T04:15:36;100168.06;;;14.20;80.41
52777;BME280;38656;54.260;20.822;2023-04-26T04:18:02;100171.69;;;13.47;82.42
52777;BME280;38656;54.260;20.822;2023-04-26T04:20:29;100164.81;;;14.08;80.02
52777;BME280;38656;54.260;20.822;2023-04-26T04:22:56;100168.91;;;14.03;78.97
52777;BME280;38656;54.260;20.822;2023-04-26T04:25:23;100169.75;;;14.47;79.11
52777;BME280;38656;54.260;20.822;2023-04-26T04:27:50;100167.56;;;13.35;80.76
52777;BME280;38656;54.260;20.822;2023-04-26T04:30:18;100169.00;;;14.37;79.09
52777;BME280;38656;54.260;20.822;2023-04-26T04:32:44;100165.22;;;15.35;74.05
52777;BME280;38656;54.260;20.822;2023-04-26T04:35:11;100172.88;;;14.43;78.68
52777;BME280;38656;54.260;20.822;2023-04-26T04:37:38;100167.78;;;13.87;79.01
52777;BME280;38656;54.260;20.822;2023-04-26T04:40:05;100175.50;;;13.07;85.28
52777;BME280;38656;54.260;20.822;2023-04-26T04:42:31;100172.47;;;13.30;80.89
52777;BME280;38656;54.260;20.822;2023-04-26T04:44:57;100164.91;;;13.98;79.69
52777;BME280;38656;54.260;20.822;2023-04-26T04:47:24;100169.72;;;13.49;81.51
52777;BME280;38656;54.260;20.822;2023-04-26T04:49:50;100163.59;;;13.67;78.96
52777;BME280;38656;54.260;20.822;2023-04-26T04:52:18;100174.09;;;13.31;83.51
52777;BME280;38656;54.260;20.822;2023-04-26T04:54:46;100168.91;;;13.85;81.06
52777;BME280;38656;54.260;20.822;2023-04-26T04:57:13;100171.03;;;14.17;79.46
52777;BME280;38656;54.260;20.822;2023-04-26T04:59:41;100172.31;;;13.77;79.07
52777;BME280;38656;54.260;20.822;2023-04-26T05:02:08;100176.16;;;14.37;80.09
52777;BME280;38656;54.260;20.822;2023-04-26T05:04:34;100178.94;;;15.06;75.17
52777;BME280;38656;54.260;20.822;2023-04-26T05:07:00;100180.91;;;14.07;78.84
52777;BME280;38656;54.260;20.822;2023-04-26T05:09:27;100183.41;;;13.90;80.79
52777;BME280;38656;54.260;20.822;2023-04-26T05:11:53;100184.81;;;13.67;82.66
52777;BME280;38656;54.260;20.822;2023-04-26T05:14:19;100182.38;;;15.40;77.92
52777;BME280;38656;54.260;20.822;2023-04-26T05:16:45;100184.91;;;14.11;78.53
52777;BME280;38656;54.260;20.822;2023-04-26T05:19:11;100183.13;;;14.82;76.51
52777;BME280;38656;54.260;20.822;2023-04-26T05:21:38;100183.91;;;14.30;79.21
52777;BME280;38656;54.260;20.822;2023-04-26T05:24:04;100188.84;;;13.71;78.25
52777;BME280;38656;54.260;20.822;2023-04-26T05:26:30;100190.69;;;14.24;76.75
52777;BME280;38656;54.260;20.822;2023-04-26T05:28:57;100187.44;;;14.39;75.38
52777;BME280;38656;54.260;20.822;2023-04-26T05:31:23;100187.75;;;14.36;78.14
52777;BME280;38656;54.260;20.822;2023-04-26T05:33:49;100177.56;;;15.01;74.77
52777;BME280;38656;54.260;20.822;2023-04-26T05:36:16;100180.66;;;15.23;72.03
52777;BME280;38656;54.260;20.822;2023-04-26T05:38:42;100181.53;;;14.97;75.78
52777;BME280;38656;54.260;20.822;2023-04-26T05:41:08;100177.53;;;15.87;72.02
52777;BME280;38656;54.260;20.822;2023-04-26T05:46:01;100182.06;;;15.44;68.18
52777;BME280;38656;54.260;20.822;2023-04-26T05:48:29;100176.63;;;15.11;70.64
52777;BME280;38656;54.260;20.822;2023-04-26T05:50:55;100186.84;;;16.40;66.75
52777;BME280;38656;54.260;20.822;2023-04-26T05:53:21;100188.88;;;15.03;70.86
52777;BME280;38656;54.260;20.822;2023-04-26T05:55:48;100187.00;;;14.25;68.80
52777;BME280;38656;54.260;20.822;2023-04-26T05:58:14;100175.53;;;15.30;70.36
52777;BME280;38656;54.260;20.822;2023-04-26T06:00:40;100186.22;;;14.51;69.54
52777;BME280;38656;54.260;20.822;2023-04-26T06:03:07;100179.50;;;14.91;70.31
52777;BME280;38656;54.260;20.822;2023-04-26T06:05:34;100180.72;;;15.39;69.69
52777;BME280;38656;54.260;20.822;2023-04-26T06:08:01;100183.09;;;16.99;66.05
52777;BME280;38656;54.260;20.822;2023-04-26T06:10:27;100181.72;;;17.11;65.31
52777;BME280;38656;54.260;20.822;2023-04-26T06:12:53;100191.19;;;16.08;65.61
52777;BME280;38656;54.260;20.822;2023-04-26T06:15:20;100185.81;;;16.91;63.65
52777;BME280;38656;54.260;20.822;2023-04-26T06:17:46;100196.47;;;16.91;62.00
52777;BME280;38656;54.260;20.822;2023-04-26T06:20:12;100197.00;;;16.45;61.94
52777;BME280;38656;54.260;20.822;2023-04-26T06:22:38;100185.47;;;16.94;63.28
52777;BME280;38656;54.260;20.822;2023-04-26T06:25:05;100187.78;;;16.80;65.25
52777;BME280;38656;54.260;20.822;2023-04-26T06:27:31;100194.56;;;15.51;61.71
52777;BME280;38656;54.260;20.822;2023-04-26T06:29:58;100191.00;;;15.34;67.44
52777;BME280;38656;54.260;20.822;2023-04-26T06:32:24;100202.63;;;15.25;65.57
52777;BME280;38656;54.260;20.822;2023-04-26T06:34:50;100194.56;;;15.09;67.87
52777;BME280;38656;54.260;20.822;2023-04-26T06:37:17;100192.88;;;15.50;66.33
52777;BME280;38656;54.260;20.822;2023-04-26T06:39:43;100207.97;;;15.33;67.06
52777;BME280;38656;54.260;20.822;2023-04-26T06:42:09;100193.19;;;16.39;62.92
52777;BME280;38656;54.260;20.822;2023-04-26T06:44:36;100205.03;;;14.76;65.93
52777;BME280;38656;54.260;20.822;2023-04-26T06:47:02;100198.06;;;15.09;64.84
52777;BME280;38656;54.260;20.822;2023-04-26T06:49:28;100198.13;;;15.34;65.35
52777;BME280;38656;54.260;20.822;2023-04-26T06:51:54;100200.50;;;16.54;61.68
52777;BME280;38656;54.260;20.822;2023-04-26T06:54:21;100199.53;;;16.38;62.60
52777;BME280;38656;54.260;20.822;2023-04-26T06:56:47;100202.28;;;15.79;61.88
52777;BME280;38656;54.260;20.822;2023-04-26T06:59:13;100211.22;;;15.70;62.67
52777;BME280;38656;54.260;20.822;2023-04-26T07:01:39;100213.97;;;15.78;62.59
52777;BME280;38656;54.260;20.822;2023-04-26T07:04:06;100212.41;;;14.90;64.25
52777;BME280;38656;54.260;20.822;2023-04-26T07:06:33;100209.31;;;15.37;65.40
52777;BME280;38656;54.260;20.822;2023-04-26T07:08:59;100219.38;;;15.68;67.55
52777;BME280;38656;54.260;20.822;2023-04-26T07:11:27;100205.84;;;16.21;63.46
52777;BME280;38656;54.260;20.822;2023-04-26T07:13:53;100214.88;;;17.57;59.42
52777;BME280;38656;54.260;20.822;2023-04-26T07:16:20;100219.19;;;16.13;62.09
52777;BME280;38656;54.260;20.822;2023-04-26T07:18:46;100219.03;;;15.63;65.11
52777;BME280;38656;54.260;20.822;2023-04-26T07:21:17;100219.34;;;15.17;67.82
52777;BME280;38656;54.260;20.822;2023-04-26T07:23:44;100222.34;;;16.08;66.35
52777;BME280;38656;54.260;20.822;2023-04-26T07:26:10;100233.94;;;15.39;64.94
52777;BME280;38656;54.260;20.822;2023-04-26T07:28:37;100237.38;;;14.97;66.61
52777;BME280;38656;54.260;20.822;2023-04-26T07:31:04;100234.16;;;16.38;65.97
52777;BME280;38656;54.260;20.822;2023-04-26T07:33:30;100231.72;;;14.92;68.24
52777;BME280;38656;54.260;20.822;2023-04-26T07:35:57;100235.75;;;14.78;67.09
52777;BME280;38656;54.260;20.822;2023-04-26T07:38:24;100233.81;;;16.66;63.86
52777;BME280;38656;54.260;20.822;2023-04-26T07:40:51;100234.63;;;15.50;64.45
52777;BME280;38656;54.260;20.822;2023-04-26T07:43:19;100236.38;;;15.75;63.23
52777;BME280;38656;54.260;20.822;2023-04-26T07:45:45;100239.25;;;15.39;61.72
52777;BME280;38656;54.260;20.822;2023-04-26T07:48:12;100232.16;;;16.90;59.57
52777;BME280;38656;54.260;20.822;2023-04-26T07:50:38;100237.81;;;16.70;57.00
52777;BME280;38656;54.260;20.822;2023-04-26T07:53:04;100237.69;;;16.47;58.11
52777;BME280;38656;54.260;20.822;2023-04-26T07:55:31;100230.72;;;17.98;56.94
52777;BME280;38656;54.260;20.822;2023-04-26T07:57:57;100248.78;;;16.01;59.12
52777;BME280;38656;54.260;20.822;2023-04-26T08:00:23;100235.31;;;16.60;58.12
52777;BME280;38656;54.260;20.822;2023-04-26T08:02:49;100243.50;;;16.42;57.46
52777;BME280;38656;54.260;20.822;2023-04-26T08:05:16;100243.81;;;16.80;56.70
52777;BME280;38656;54.260;20.822;2023-04-26T08:07:43;100249.25;;;15.46;58.44
52777;BME280;38656;54.260;20.822;2023-04-26T08:10:10;100241.44;;;17.02;56.17
52777;BME280;38656;54.260;20.822;2023-04-26T08:12:37;100232.97;;;18.32;52.93
52777;BME280;38656;54.260;20.822;2023-04-26T08:15:04;100246.22;;;17.63;51.20
52777;BME280;38656;54.260;20.822;2023-04-26T08:17:31;100237.97;;;17.49;51.77
52777;BME280;38656;54.260;20.822;2023-04-26T08:19:58;100247.13;;;17.47;52.00
52777;BME280;38656;54.260;20.822;2023-04-26T08:22:24;100256.13;;;15.99;53.96
52777;BME280;38656;54.260;20.822;2023-04-26T08:24:53;100252.78;;;17.52;50.60
52777;BME280;38656;54.260;20.822;2023-04-26T08:27:19;100247.44;;;17.92;50.83
52777;BME280;38656;54.260;20.822;2023-04-26T08:29:46;100253.31;;;16.58;51.52
52777;BME280;38656;54.260;20.822;2023-04-26T08:32:12;100244.25;;;17.96;47.85
52777;BME280;38656;54.260;20.822;2023-04-26T08:34:39;100242.94;;;18.15;48.21
52777;BME280;38656;54.260;20.822;2023-04-26T08:37:07;100260.28;;;15.59;50.96
52777;BME280;38656;54.260;20.822;2023-04-26T08:39:33;100248.16;;;16.65;49.37
52777;BME280;38656;54.260;20.822;2023-04-26T08:42:05;100254.34;;;17.38;48.51
52777;BME280;38656;54.260;20.822;2023-04-26T08:44:34;100255.50;;;16.55;48.59
52777;BME280;38656;54.260;20.822;2023-04-26T08:47:28;100252.16;;;17.42;46.34
52777;BME280;38656;54.260;20.822;2023-04-26T08:49:57;100250.53;;;19.03;43.66
52777;BME280;38656;54.260;20.822;2023-04-26T08:52:30;100261.41;;;17.23;44.13
52777;BME280;38656;54.260;20.822;2023-04-26T08:54:58;100267.63;;;17.55;44.29
52777;BME280;38656;54.260;20.822;2023-04-26T08:57:25;100269.03;;;17.34;44.39
52777;BME280;38656;54.260;20.822;2023-04-26T08:59:52;100262.97;;;18.81;41.93
52777;BME280;38656;54.260;20.822;2023-04-26T09:02:20;100275.63;;;17.55;42.19
52777;BME280;38656;54.260;20.822;2023-04-26T09:04:47;100276.16;;;16.77;43.36
52777;BME280;38656;54.260;20.822;2023-04-26T09:07:45;100274.44;;;16.02;44.22
52777;BME280;38656;54.260;20.822;2023-04-26T09:10:13;100278.19;;;17.40;42.61
52777;BME280;38656;54.260;20.822;2023-04-26T09:12:43;100262.09;;;17.08;42.53
52777;BME280;38656;54.260;20.822;2023-04-26T09:15:09;100267.41;;;18.50;41.23
52777;BME280;38656;54.260;20.822;2023-04-26T09:17:37;100271.41;;;19.22;40.89
52777;BME280;38656;54.260;20.822;2023-04-26T09:20:27;100270.38;;;18.09;40.24
52777;BME280;38656;54.260;20.822;2023-04-26T09:23:14;100273.63;;;18.43;41.50
52777;BME280;38656;54.260;20.822;2023-04-26T09:25:42;100277.78;;;16.78;41.58
52777;BME280;38656;54.260;20.822;2023-04-26T09:28:26;100281.88;;;17.78;40.72
52777;BME280;38656;54.260;20.822;2023-04-26T09:30:52;100294.47;;;17.13;42.01
52777;BME280;38656;54.260;20.822;2023-04-26T09:33:19;100289.75;;;16.17;43.40
52777;BME280;38656;54.260;20.822;2023-04-26T09:35:45;100288.50;;;18.83;41.40
52777;BME280;38656;54.260;20.822;2023-04-26T09:38:13;100290.03;;;18.63;42.50
52777;BME280;38656;54.260;20.822;2023-04-26T09:40:49;100286.66;;;18.22;41.62
52777;BME280;38656;54.260;20.822;2023-04-26T09:43:16;100291.47;;;16.34;43.13
52777;BME280;38656;54.260;20.822;2023-04-26T09:45:48;100286.00;;;19.05;40.34
52777;BME280;38656;54.260;20.822;2023-04-26T09:50:52;100290.63;;;17.64;41.90
52777;BME280;38656;54.260;20.822;2023-04-26T09:53:27;100299.47;;;16.92;41.75
52777;BME280;38656;54.260;20.822;2023-04-26T09:58:39;100295.78;;;17.09;42.77
52777;BME280;38656;54.260;20.822;2023-04-26T10:01:07;100307.03;;;15.96;43.30
52777;BME280;38656;54.260;20.822;2023-04-26T10:03:34;100302.63;;;17.68;40.84
52777;BME280;38656;54.260;20.822;2023-04-26T10:06:02;100300.81;;;16.55;42.68
52777;BME280;38656;54.260;20.822;2023-04-26T10:08:32;100303.63;;;17.11;42.30
52777;BME280;38656;54.260;20.822;2023-04-26T10:11:02;100308.59;;;17.78;41.75
52777;BME280;38656;54.260;20.822;2023-04-26T10:13:31;100311.97;;;17.72;43.24
52777;BME280;38656;54.260;20.822;2023-04-26T10:15:58;100316.44;;;17.32;43.62
52777;BME280;38656;54.260;20.822;2023-04-26T10:18:25;100314.47;;;17.09;42.61
52777;BME280;38656;54.260;20.822;2023-04-26T10:20:54;100314.75;;;17.87;42.39
52777;BME280;38656;54.260;20.822;2023-04-26T10:23:23;100311.81;;;17.65;41.80
52777;BME280;38656;54.260;20.822;2023-04-26T10:25:51;100305.94;;;17.22;42.03
52777;BME280;38656;54.260;20.822;2023-04-26T10:28:22;100312.16;;;17.06;42.01
52777;BME280;38656;54.260;20.822;2023-04-26T10:31:07;100310.16;;;16.92;42.53
52777;BME280;38656;54.260;20.822;2023-04-26T10:33:33;100308.47;;;16.41;42.63
52777;BME280;38656;54.260;20.822;2023-04-26T10:36:01;100303.44;;;19.01;40.88
52777;BME280;38656;54.260;20.822;2023-04-26T10:38:27;100314.09;;;17.77;42.03
52777;BME280;38656;54.260;20.822;2023-04-26T10:40:53;100316.47;;;16.99;43.52
52777;BME280;38656;54.260;20.822;2023-04-26T10:43:29;100324.13;;;17.19;44.13
52777;BME280;38656;54.260;20.822;2023-04-26T10:45:56;100331.28;;;17.34;43.92
52777;BME280;38656;54.260;20.822;2023-04-26T10:48:42;100338.63;;;15.56;45.77
52777;BME280;38656;54.260;20.822;2023-04-26T10:51:09;100337.63;;;15.57;46.91
52777;BME280;38656;54.260;20.822;2023-04-26T10:56:10;100341.47;;;15.29;47.49
52777;BME280;38656;54.260;20.822;2023-04-26T10:58:40;100348.13;;;15.85;47.99
52777;BME280;38656;54.260;20.822;2023-04-26T11:01:15;100344.28;;;16.80;47.01
52777;BME280;38656;54.260;20.822;2023-04-26T11:03:43;100349.00;;;17.03;46.32
52777;BME280;38656;54.260;20.822;2023-04-26T11:06:51;100343.84;;;16.93;46.74
52777;BME280;38656;54.260;20.822;2023-04-26T11:09:37;100356.78;;;16.55;46.46
52777;BME280;38656;54.260;20.822;2023-04-26T11:12:15;100355.25;;;15.85;48.13
52777;BME280;38656;54.260;20.822;2023-04-26T11:14:42;100351.34;;;16.05;47.61
52777;BME280;38656;54.260;20.822;2023-04-26T11:17:09;100359.75;;;16.43;47.41
52777;BME280;38656;54.260;20.822;2023-04-26T11:19:36;100350.53;;;16.05;46.94
52777;BME280;38656;54.260;20.822;2023-04-26T11:22:05;100355.03;;;16.13;47.79
52777;BME280;38656;54.260;20.822;2023-04-26T11:24:33;100360.31;;;17.85;46.82
52777;BME280;38656;54.260;20.822;2023-04-26T11:27:07;100365.38;;;17.64;43.88
52777;BME280;38656;54.260;20.822;2023-04-26T11:29:34;100371.25;;;16.27;45.25
52777;BME280;38656;54.260;20.822;2023-04-26T11:32:01;100365.66;;;16.96;46.09
52777;BME280;38656;54.260;20.822;2023-04-26T11:34:32;100371.59;;;16.49;46.64
52777;BME280;38656;54.260;20.822;2023-04-26T11:37:02;100372.34;;;16.17;47.65
52777;BME280;38656;54.260;20.822;2023-04-26T11:39:33;100378.75;;;15.37;50.75
52777;BME280;38656;54.260;20.822;2023-04-26T11:42:08;100381.25;;;15.38;51.92
52777;BME280;38656;54.260;20.822;2023-04-26T11:44:35;100370.72;;;15.55;51.36
52777;BME280;38656;54.260;20.822;2023-04-26T11:47:06;100388.28;;;14.95;52.90
52777;BME280;38656;54.260;20.822;2023-04-26T11:49:34;100390.13;;;15.21;51.46
52777;BME280;38656;54.260;20.822;2023-04-26T11:52:02;100393.19;;;16.21;50.19
52777;BME280;38656;54.260;20.822;2023-04-26T11:54:34;100382.41;;;15.88;50.91
52777;BME280;38656;54.260;20.822;2023-04-26T11:57:13;100381.50;;;17.06;49.86
52777;BME280;38656;54.260;20.822;2023-04-26T11:59:39;100389.41;;;16.32;49.68
52777;BME280;38656;54.260;20.822;2023-04-26T12:02:06;100380.75;;;17.62;49.30
52777;BME280;38656;54.260;20.822;2023-04-26T12:04:32;100386.47;;;16.76;50.90
52777;BME280;38656;54.260;20.822;2023-04-26T12:06:59;100392.66;;;16.09;51.23
52777;BME280;38656;54.260;20.822;2023-04-26T12:09:29;100396.00;;;17.28;49.09
52777;BME280;38656;54.260;20.822;2023-04-26T12:12:00;100390.03;;;17.91;49.33
52777;BME280;38656;54.260;20.822;2023-04-26T12:14:34;100396.72;;;17.95;47.61
52777;BME280;38656;54.260;20.822;2023-04-26T12:17:02;100401.84;;;16.91;50.66
52777;BME280;38656;54.260;20.822;2023-04-26T12:19:48;100399.81;;;17.42;48.85
52777;BME280;38656;54.260;20.822;2023-04-26T12:22:20;100405.34;;;17.24;51.14
52777;BME280;38656;54.260;20.822;2023-04-26T12:24:47;100402.53;;;17.09;51.55
52777;BME280;38656;54.260;20.822;2023-04-26T12:27:20;100412.69;;;17.14;51.91
52777;BME280;38656;54.260;20.822;2023-04-26T12:29:46;100407.81;;;16.76;52.79
52777;BME280;38656;54.260;20.822;2023-04-26T12:32:13;100422.53;;;17.05;51.88
52777;BME280;38656;54.260;20.822;2023-04-26T12:34:39;100426.41;;;18.00;50.96
52777;BME280;38656;54.260;20.822;2023-04-26T12:37:05;100425.09;;;17.96;50.97
52777;BME280;38656;54.260;20.822;2023-04-26T12:39:31;100430.78;;;17.93;49.51
52777;BME280;38656;54.260;20.822;2023-04-26T12:41:57;100425.34;;;17.20;51.14
52777;BME280;38656;54.260;20.822;2023-04-26T12:44:24;100435.53;;;16.33;52.98
52777;BME280;38656;54.260;20.822;2023-04-26T12:46:51;100432.81;;;17.74;52.05
52777;BME280;38656;54.260;20.822;2023-04-26T12:49:17;100431.88;;;18.46;51.78
52777;BME280;38656;54.260;20.822;2023-04-26T12:51:43;100434.03;;;18.51;51.45
52777;BME280;38656;54.260;20.822;2023-04-26T12:54:09;100437.63;;;16.72;53.35